Washington, USA · Corporation

Jurisdiction: Washington, USA
Register: Washington Secretary of State

This dataset includes over 1.16 million corporations and business entities registered with the Washington Secretary of State. Each corporation registration contains business name, address, register agent, entity status, officers and incorporation date.

98030 · Search Result

Corporation Name Office Address Agent Start Date
VENTOR L.L.C. 110 20 Se Kent Kangley Rd Apt W106, Kent, WA 98030 JHONNY VENTURA 2018-08-10
INTERNATIONAL TECH SERVICES, INC. 1851 Central Pl. S., Ste# 122, Kent, WA 98030 ZHENHAI LI 2018-08-08
TECHPRO FLOORS LLC 10025 Se 244 Th Ct, Kent, WA 98030 LUDMILA CASTRO 2018-06-11
FATHER OF ONE LLC 24918 110th Ave Se Apt #b, Kent, WA 98030 MINH CK PHAM 2018-05-15
SUIT:E LLC 26521 118th Way Se, Kent, WA 98030 VONZELL MCDOWELL JR. 2018-05-14
A & S IMPORTERS LLC 26278 Se 125th Pl, Kent, WA 98030 A & S IMPORTERS 2018-05-14
SOLUTION ELECTRIC, LLC 11820 Se 254 St, Kent, WA 98030 IVAN ZLAMANYUK 2018-05-14
THE STERLING TEAM, LLC 13036 Se Kent-kangley Rd., Kent, WA 98030 DAVID STERLING 2018-05-14
HONG NGO LLC 13121 Se Unit 104, Kent, WA 98030 HONG NGO 2018-04-24
ACE MAPLE LLC 1130 Se 256th St, Kent, WA 98030 MATTHEW RICHEY 2018-02-22
IKE WHITTLESEY EXCAVATING, INC. 10715 Se 256th St, Kent, WA 98030 JANIECE WHITTLESEY 2018-01-02
OPHELIA AYRES LLC 25810 114th Pl Se C102, Kent, WA 98030 ALEXIS CAROVILLANO 2017-11-01
SALAZAR RICO LLC 25717 118th St Pl Se, Kent, WA 98030 ARACELI RICO DE DIOS 2017-10-17
S.K REMODELING LLC 25005 98th Pl S C201, Kent, WA 98030 S.K REMODELING LLC 2017-10-13
JUDAH MINISTRIES INTERNATIONAL 25221 108th Ave Se Apt D203, Kent, WA 98030 PATRICK NJOROGE 2017-09-23
ASAP CANNABIS, LLC 25007 108th Ave Se E-205, Kent, WA 98030 SALVADOR ARCEO 2017-07-31
IN HOME DIVINE HEALTH CARE SERVICES LLC 11305 Se Kent Kangley Rd, Kent, WA 98030 DIVINE MUTESI 2017-07-31
VIVA TRANS INC 26212 106th Pl Se J101, Kent, WA 98030 VITALII DEMIANIUK 2017-07-13
SABA'S LIMO INC 11239 S E 260th Ste F301, Kent, WA 98030 SABAH ALNASSARY 2017-07-06
ADVANCED LANDSCAPING 1 LLC 10803 Se Kent Kangly Rd Ste-20, Kent, WA 98030 ALEX TSARUK 2017-05-18
LUNA INSULATION & GENERAL CONTRACTOR, LLC 25414 104th Ave Se, Kent, WA 98030 DLT SERVICES 2017-05-09
543 - LLC 10803 Se Kent Kangley Rd #207, Kent, WA 98030 RICA SERVICES CO. 2017-05-02
EASY CHOICE LLC 25005 98th Pl. S. C103, Kent, WA 98030 CHASE COLASURDO 2017-05-01
FLORAZ LLC 12900 Se 268th St, Kent, WA 98030 MARY A RAZON 2017-04-29
NICOLE VELDYKE REALTY INC 11721 Se 264th, Kent, WA 98030 NICOLE VELDWYK 2017-04-28
RPM SHIPPING LLC 27526 116th Pl Se, Kent, WA 98030 RUSTAM DYULBEROV 2017-04-21
TECH TOYS USA LLC 26213 116th Ave Se C201, Kent, WA 98030 OZGUR KAYA 2017-04-09
KAYLA'S CARPET CLEANING LIMITED LIABILITY COMPANY 10608 Se 250th Pl, Kent, WA 98030 ADRIANA VALENCIA 2017-04-07
KATARTIZO MINISTRIES 27933 122 Pl S.e., Kent, WA 98030 PRESIDENT 2017-04-07
DHALIWAL LOGISTICS LLC 10818 Se 240th Place, Kent, WA 98030 BALWINDER DHALIWAL 2017-04-03
TRADING SCIENCE US INC 10803 Se Kent Kang Rd Ste 207, Kent, WA 98030 RICA SERVICES CO. 2017-03-21
LEONIDES ABARCA MAKEUP ARTIST, LLC 24031 110th Pl Sw Apt N201, Kent, WA 98030 LEONIDES ABARCA-CASTANEDA 2017-02-17
49TH VENTURES LLC 26220 116th Ave Se, Kent, WA 98030 GURPREET SANGHA 2017-02-17
HOTEL HUMANITY 26335 116th Ave Se H-205, Kent, WA 98030 ESSENCE RUSS 2017-02-17
SOLUTIONS R.E. INV., LLC 12030 S E 252nd Pl, Kent, WA 98030 RAYMOND OSBURN 2017-02-09
ARSENIY CONSTRUCTION LLC 25131 98th Place South E205, Kent, WA 98030 IVAN ARSENIY 2017-02-04
SUPPER LOGISTICS LLC 1819 Central Ave S Suite- C123, Kent, WA 98030 RIGHT-AWAY SERVICES, LLC 2017-01-20
ARABIAN NIGHTS HUKKA LOUNGE LLC 25108 97th Pl S H-201, Kent, WA 98030 ALI AL-LAMI 2017-01-18
YEE CAPITAL ADVISORS LLC 12117 Se 261st Ct, Kent, WA 98030 JEFFREYYEE 2017-01-02
ALHUAY CORP. 10248 Se 256th St, Kent, WA 98030 OM PARKASH 2017-01-01
AFRICAN WOMEN BUSINESS ALLIANCE 25828 110th Ave Se F104, Kent, WA 98030 NOURAH YONOUS 2016-12-05
HIGH HILLS BODY CARE LLC 320 E Meeker St #104, Kent, WA 98030 ANH DIEP HOANG 2016-12-01
J J S XPRESS, L.L.C. 25426 98th Ave S D105, Kent, WA 98030 JASMEET SINGH 2016-10-11
SUPER SONIC MOBILE DETAILING LLP 10830 Se Kent Kangley Rd Apt10, Kent, WA 98030 TERRENCE HARRINGTON 2016-09-27
SERVICES OF CONSTRUCTION CROSSROAD, LLC 11020 Se Kent Kgly Rd #f201, Kent, WA 98030 FRANCISCO JAVIER BECERRA 2016-09-20
VJ PAINTING LLC 11121 Se 251 St Ct Apt 14-2, Kent, WA 98030 YULIYA KALABISHKA 2016-09-20
EASTHILL CORNER LLC 10248 Se 256th Street, Kent, WA 98030 DLT SERVICES 2016-09-19
SUNSHINE TRANSPORT LLC 1819 Central Ave S # C123, Kent, WA 98030 RIGHT-AWAY SERVICES, LLC 2016-09-17
HIDDEN RIDGE KENT HOMEOWNERS ASSOCIATION 28121 104th Ave Se, Kent, WA 98030 MARK SIMS 2016-09-15
THE LADDER OF SUCCESS, INCORPORATED 24821 100th Pl Se N104, Kent, WA 98030 MILICENT KORMANYOS 2016-09-08
ICONNECT LLC 25035 108th Ave Se F301, Kent, WA 98030 ICONNECT LLC 2016-09-06
TKM-1 INC 10248 Se 256th St, Kent, WA 98030 DLT SERVICES 2016-08-23
D&E GRANITE MARBEL LLC 25920 112th Ave, Kent, WA 98030 ARTUR DIACONU 2016-06-24
THE QUARTERS CATERING LLC 622 E Titus St, Kent, WA 98030 TRAMMELL WOODS 2016-06-08
DEWSUN LLC 13104 Se 279th Pl, Kent, WA 98030 HALYNA KALYTA 2016-06-01
A N I CONSTRUCTION LLC 707 E Chicago St, Kent, WA 98030 SEAN TINGEY 2016-05-31
BLUE HAWK TRUCKING, INC. 11515 Se 253rd Pl, Kent, WA 98030 RUPINDER SINGH 2016-05-31
SHERRI BY DESIGN, LLC 10525 Se 250th Pl G103, Kent, WA 98030 SHERRI SHAFTIC 2016-05-30
TIDY TRANSACTIONS, LLC 10618 Se 240th St #201, Kent, WA 98030 CHELSEA BOEHM 2016-05-23
SINGH BROTHERS LOGISTICS LLC 26428 110th Pl Se, Kent, WA 98030 GURIQBAL SINGH 2016-05-22
S&N THULIN LLC 9920 S 267th St, Kent, WA 98030 NORMAN THULIN 2016-05-18
M&D SOUND LLC 1133 E Hemlock St, Kent, WA 98030 DANA DOUGHERTY 2016-05-18
ON TRACK TRUCKING LLC 10615 Se 264th St, Kent, WA 98030 CHARANJIT SINGH 2016-05-17
VIP PETER CONSTRUCTION INC 10710 Se 256th St #e102, Kent, WA 98030 PETRO BOLTIK 2016-05-16
AP CREATIVE MARKETING LLC 12202 Se Kent Kangley Rd, Kent, WA 98030 AMY PEIFFER 2016-05-12
SOUND FINANCE CORPORATION 1851 Central Place South Ste 205, Kent, WA 98030 HARPREET VIRK 2016-05-07
LA BARRIGA LLENA LLC 10818 Se 260th St, Kent, WA 98030 EDGAR MENDOZA 2016-05-05
GO TO TEAM INC 25608 98th Place South # A201, Kent, WA 98030 BRENT EBELL 2016-05-03
BABICH BROS. LLC 10618 Se Kent-kangley Rd Ste 104, Kent, WA 98030 JOHN BABICH III 2016-05-03
LIGHT POWER PROJECT 11328 Se Kent Kangley Rd # A101, Kent, WA 98030 LCC 2016-05-02
EVANS SHORT PLAT HOMEOWNERS' ASSOCIATION 11605 Se 253rd St, Kent, WA 98030 TOMMY HUYNH 2016-05-02
NORCAL PRO LLC 12231 Se 258th Pl, Kent, WA 98030 PAVEL DANILYUK 2016-04-29
HB DRYWALL LLC 12211 Se 276th Pl, Kent, WA 98030 HENRRY VILLEDA 2016-04-29
TAQUERIA EL TAPATIO LLC 9715 S 248th St, Kent, WA 98030 NOEMI DIAZ 2016-04-26
HEAT&HAMMER LLC 12517 Se 273rd Pl, Kent, WA 98030 KEVIN WOODLEY 2016-04-21
WAYS AND MEANS CONSTRUCTION LLC 25046 110th Pl Se #c, Kent, WA 98030 STEPHEN ROSE 2016-04-21
GRAPHICS ZONE LLC 12132 Se 276th Pl, Kent, WA 98030 HENOK HABTEMARIAM 2016-04-20
ARISING PROFFESSIONAL LAWN CARE & HOME MAITENANCE SERVICES CORP. 11043 Se 244th St, Kent, WA 98030 HERBERT RICHARDSON 2016-04-16
A1 HOME RENOVATORS LLC 25913 116th Ave Se, Kent, WA 98030 MALKIAT SINGH 2016-04-13
GUARDIAN CONSTRUCTION LLC 12104 Se 262nd Ct, Kent, WA 98030 VIACHESLAV GALIANT 2016-04-11
A&E SIDING LLC 24010 103rd Ave Se Apt C304, Kent, WA 98030 ALEKSANDR GERMAN 2016-04-05
UNEXPRESSED APPAREL LLC 12408 Se 272nd Pl #d, Kent, WA 98030 DANELLE JONES 2016-04-04
SAFE N FAST TRANSPORT LLC 24203 114th Pl Se, Kent, WA 98030 RUPINDER KAUR 2016-04-04
DARLA M. REED, LLC 8407 South 259th St #101, Kent, WA 98030 JULIE CHRISTENSON 2016-04-01
LIGHT SPEED TRANSPORT LLC 9820 S 242nd Pl, Kent, WA 98030 GURPREET SINGH 2016-03-30
COMPLETE DELIVERY, LLC 26417 Woodland Way S, Kent, WA 98030 STEPHANIE ORELLANA SANABRIA 2016-03-29
VIVIAN CAVER, LLC 8407 S 259th St #101, Kent, WA 98030 JULIE CHRISTENSON 2016-03-28
B A THOMPSON CONSULTING LLC 12717 Se 253rd Ct, Kent, WA 98030 BEVERLY THOMPSON 2016-03-25
BLUESTONE MANAGEMENT LLC 26220 116th Ave Se 201, Kent, WA 98030 PARAS MALIK 2016-03-23
ALL & ABOVE REMODELING LLC 12022 Se 269th Pl, Kent, WA 98030 VOIT ZAUTADZE 2016-03-23
KB GREENE INVESTMENTS LLC 26832 121st Pl Se, Kent, WA 98030 THONG KSOR 2016-03-16
PARTNERS HOMECARE LLC 11308 Se 269th St, Kent, WA 98030 MERCY NJIHIA 2016-03-16
ABC REAL ESTATE HOLDINGS LLC 10014 Se 246th Pl, Kent, WA 98030 GURPREET SINGH 2016-03-14
CAROL M. GRIFFIN, LLC 8407 S 259th St #101, Kent, WA 98030 JULIE CHRISTENSON 2016-03-14
LIGHTSPEED CONSTRUCTION SERVICES LLC 24608 131st Pl Se, Kent, WA 98030 JOHN R LUKASAVAGE JR 2016-03-10
SEATTLE ALUMNAE PANHELLENIC 24502 96th Ave S, Kent, WA 98030 SEATTLE ALUMNAE PANHELLENIC 2016-03-09
N.WCASTLES.FLOORING LLC 10622 Se 252nd St G109, Kent, WA 98030 CINTHIA N ARRIETA MARTINEZ 2016-03-07
ROSE MARIE LUDWIG, LLC 8407 S 259th St #101, Kent, WA 98030 JULIE CHRISTENSON 2016-03-06
CNZ PAINTING AND CONSTRUCTION, LLC 11328 Se Kent-kangley Rd #d106, Kent, WA 98030 HERMEN NAVAS SAENZ 2016-03-05
CTR CONCRETE & CONSTRUCTION, INC. 506 Van De Vanter Ave, Kent, WA 98030 SCOTT CRITCHFIELD 2016-03-02